Time;durP1;ratioP1;P1;durP2;ratioP2;P2;SDS_P1;SDS_P2;PMS_P1;PMS_P2;Temp;Humidity;BMP_temperature;BMP_pressure;BME280_temperature;BME280_humidity;BME280_pressure;Samples;Min_cycle;Max_cycle;Signal;HPM_P1;HPM_P2
2023/01/22 00:00:57;;;;;;;28.65;17.55;;;;;;;;;;4943532;28;20062;-83
2023/01/22 00:03:24;;;;;;;27.42;17.65;;;;;;;;;;4943358;28;20046;-83
2023/01/22 00:05:51;;;;;;;28.00;16.60;;;;;;;;;;4958557;28;20046;-83
2023/01/22 00:08:18;;;;;;;27.42;17.15;;;;;;;;;;4942940;28;20054;-84
2023/01/22 00:10:51;;;;;;;26.33;16.42;;;;;;;;;;4944010;28;20133;-83
2023/01/22 00:13:18;;;;;;;;;;;;;;;;;;4947698;28;20130;-84
2023/01/22 00:15:45;;;;;;;25.60;16.33;;;;;;;;;;4982634;28;19929;-84
2023/01/22 00:18:12;;;;;;;26.75;16.40;;;;;;;;;;4950317;28;20134;-85
2023/01/22 00:20:39;;;;;;;27.92;16.80;;;;;;;;;;4944223;28;20076;-86
2023/01/22 00:23:07;;;;;;;27.48;16.70;;;;;;;;;;4949429;28;20122;-85
2023/01/22 00:25:37;;;;;;;25.65;15.65;;;;;;;;;;4949464;28;20068;-82
2023/01/22 00:28:04;;;;;;;26.10;16.10;;;;;;;;;;4947059;28;20156;-82
2023/01/22 00:30:31;;;;;;;25.52;15.93;;;;;;;;;;4947311;28;20050;-84
2023/01/22 00:32:58;;;;;;;25.05;16.20;;;;;;;;;;4946565;28;20496;-84
2023/01/22 00:35:24;;;;;;;25.80;16.15;;;;;;;;;;4946676;28;20510;-81
2023/01/22 00:37:51;;;;;;;26.02;15.90;;;;;;;;;;4962758;28;20455;-84
2023/01/22 00:40:18;;;;;;;23.95;14.90;;;;;;;;;;4945923;28;20056;-84
2023/01/22 00:42:46;;;;;;;24.38;15.18;;;;;;;;;;4946110;28;20101;-84
2023/01/22 00:45:13;;;;;;;24.83;16.10;;;;;;;;;;4945437;28;20058;-84
2023/01/22 00:47:40;;;;;;;22.95;14.13;;;;;;;;;;4960462;28;20105;-83
2023/01/22 00:50:08;;;;;;;22.00;14.63;;;;;;;;;;4945652;28;20110;-81
2023/01/22 00:52:36;;;;;;;22.45;14.38;;;;;;;;;;4961920;28;20503;-82
2023/01/22 00:55:04;;;;;;;23.20;14.52;;;;;;;;;;4946016;28;20408;-82
2023/01/22 00:57:31;;;;;;;23.38;15.05;;;;;;;;;;4945469;28;20052;-82
2023/01/22 00:59:58;;;;;;;23.70;14.88;;;;;;;;;;4945504;28;20057;-83
2023/01/22 01:02:25;;;;;;;22.30;14.43;;;;;;;;;;4944694;28;20050;-82
2023/01/22 01:04:52;;;;;;;24.35;14.88;;;;;;;;;;4952986;28;20043;-83
2023/01/22 01:07:18;;;;;;;23.15;14.27;;;;;;;;;;4952695;28;20058;-83
2023/01/22 01:09:45;;;;;;;21.92;14.38;;;;;;;;;;4949263;28;20064;-82
2023/01/22 01:12:12;;;;;;;24.38;14.55;;;;;;;;;;4948450;28;20046;-82
2023/01/22 01:14:39;;;;;;;23.02;13.50;;;;;;;;;;4945553;28;20129;-83
2023/01/22 01:17:05;;;;;;;23.77;14.20;;;;;;;;;;4944436;28;20046;-83
2023/01/22 01:19:32;;;;;;;19.13;12.80;;;;;;;;;;4945677;28;20050;-84
2023/01/22 01:21:59;;;;;;;19.50;13.52;;;;;;;;;;4945508;28;20054;-83
2023/01/22 01:24:26;;;;;;;25.95;14.85;;;;;;;;;;4944947;28;20061;-83
2023/01/22 01:26:53;;;;;;;20.77;13.00;;;;;;;;;;4953331;28;20518;-83
2023/01/22 01:29:19;;;;;;;20.35;13.52;;;;;;;;;;4954254;28;20474;-81
2023/01/22 01:31:50;;;;;;;20.58;13.60;;;;;;;;;;4951781;28;20046;-83
2023/01/22 01:34:17;;;;;;;22.77;14.40;;;;;;;;;;4950747;28;20055;-82
2023/01/22 01:36:44;;;;;;;20.73;13.48;;;;;;;;;;4945610;28;20197;-81
2023/01/22 01:39:15;;;;;;;21.70;14.23;;;;;;;;;;4947914;28;20055;-81
2023/01/22 01:41:42;;;;;;;25.30;14.60;;;;;;;;;;4947983;28;20058;-81
2023/01/22 01:44:16;;;;;;;23.27;14.63;;;;;;;;;;4946765;28;20170;-80
2023/01/22 01:46:56;;;;;;;23.25;14.30;;;;;;;;;;4962923;28;20086;-81
2023/01/22 01:49:27;;;;;;;23.10;14.00;;;;;;;;;;4962611;28;20050;-80
2023/01/22 01:51:56;;;;;;;21.92;14.13;;;;;;;;;;4961425;28;20046;-79
2023/01/22 01:54:22;;;;;;;21.38;13.18;;;;;;;;;;4960717;28;20043;-81
2023/01/22 01:56:55;;;;;;;22.15;14.00;;;;;;;;;;4945519;28;20058;-80
2023/01/22 01:59:22;;;;;;;21.73;14.27;;;;;;;;;;4945072;28;20056;-80
2023/01/22 02:01:53;;;;;;;22.88;13.68;;;;;;;;;;4945831;28;20058;-81
2023/01/22 02:04:19;;;;;;;23.85;15.02;;;;;;;;;;4968699;28;20057;-78
2023/01/22 02:06:46;;;;;;;21.30;14.00;;;;;;;;;;4975987;28;20034;-80
2023/01/22 02:09:13;;;;;;;25.63;14.68;;;;;;;;;;4947075;28;20062;-82
2023/01/22 02:11:40;;;;;;;22.08;13.93;;;;;;;;;;4943536;28;20050;-80
2023/01/22 02:14:11;;;;;;;22.38;14.65;;;;;;;;;;4943406;28;20058;-81
2023/01/22 02:16:38;;;;;;;23.27;14.38;;;;;;;;;;4944773;28;20113;-81
2023/01/22 02:19:05;;;;;;;24.50;14.82;;;;;;;;;;4945154;28;20124;-81
2023/01/22 02:21:40;;;;;;;27.63;15.32;;;;;;;;;;4944736;28;20042;-81
2023/01/22 02:24:10;;;;;;;21.55;13.68;;;;;;;;;;4944699;28;20054;-81
2023/01/22 02:26:37;;;;;;;23.92;14.45;;;;;;;;;;4945019;28;20057;-81
2023/01/22 02:29:06;;;;;;;23.10;14.32;;;;;;;;;;4943795;28;20054;-80
2023/01/22 02:31:34;;;;;;;23.10;14.75;;;;;;;;;;4944823;28;20105;-82
2023/01/22 02:34:01;;;;;;;22.13;14.35;;;;;;;;;;4943205;28;20081;-81
2023/01/22 02:36:29;;;;;;;22.10;13.07;;;;;;;;;;4944262;28;20072;-81
2023/01/22 02:38:56;;;;;;;20.90;13.82;;;;;;;;;;4944191;28;20093;-81
2023/01/22 02:41:23;;;;;;;21.45;14.23;;;;;;;;;;4943552;28;20578;-84
2023/01/22 02:43:49;;;;;;;20.83;13.63;;;;;;;;;;4943525;28;20057;-82
2023/01/22 02:46:16;;;;;;;22.83;13.45;;;;;;;;;;4959425;28;20062;-82
2023/01/22 02:48:43;;;;;;;23.17;13.88;;;;;;;;;;4943896;28;20054;-81
2023/01/22 02:51:10;;;;;;;19.85;13.35;;;;;;;;;;4944001;28;20046;-81
2023/01/22 02:53:37;;;;;;;18.95;13.30;;;;;;;;;;4943703;28;20054;-84
2023/01/22 02:56:06;;;;;;;20.02;13.35;;;;;;;;;;4944254;28;20611;-84
2023/01/22 02:58:34;;;;;;;20.20;13.48;;;;;;;;;;4943678;28;20108;-81
2023/01/22 03:01:19;;;;;;;21.83;13.32;;;;;;;;;;4943826;28;20046;-82
2023/01/22 03:03:50;;;;;;;20.17;13.65;;;;;;;;;;4960980;28;20121;-82
2023/01/22 03:06:20;;;;;;;21.02;12.45;;;;;;;;;;4959972;28;20454;-83
2023/01/22 03:08:57;;;;;;;22.40;13.80;;;;;;;;;;4945754;28;20730;-83
2023/01/22 03:11:25;;;;;;;19.13;13.10;;;;;;;;;;4960610;28;20054;-81
2023/01/22 03:22:09;;;;;;;26.27;13.23;;;;;;;;;;4964292;28;20054;-85
2023/01/22 03:24:36;;;;;;;21.58;13.65;;;;;;;;;;4943527;28;20053;-85
2023/01/22 03:27:03;;;;;;;20.38;13.15;;;;;;;;;;4958141;28;20065;-86
2023/01/22 03:29:30;;;;;;;21.73;13.88;;;;;;;;;;4943063;28;20046;-86
2023/01/22 03:31:57;;;;;;;21.17;14.23;;;;;;;;;;4943093;28;20065;-86
2023/01/22 03:34:24;;;;;;;19.52;14.07;;;;;;;;;;4942769;28;20060;-84
2023/01/22 03:36:51;;;;;;;19.42;12.32;;;;;;;;;;4943403;28;20058;-86
2023/01/22 03:39:18;;;;;;;20.63;14.43;;;;;;;;;;4943069;28;20054;-83
2023/01/22 03:41:44;;;;;;;21.50;13.20;;;;;;;;;;4960795;28;20054;-82
2023/01/22 03:44:13;;;;;;;20.40;12.57;;;;;;;;;;4961061;28;20557;-82
2023/01/22 03:46:39;;;;;;;21.63;13.70;;;;;;;;;;4947751;28;20086;-82
2023/01/22 03:49:07;;;;;;;20.67;13.40;;;;;;;;;;4947496;28;20061;-82
2023/01/22 03:51:34;;;;;;;18.67;12.88;;;;;;;;;;4962558;28;20574;-80
2023/01/22 03:54:00;;;;;;;21.67;12.93;;;;;;;;;;4947256;28;20058;-81
2023/01/22 03:56:27;;;;;;;19.17;13.15;;;;;;;;;;4957072;28;20065;-82
2023/01/22 03:58:55;;;;;;;24.23;14.98;;;;;;;;;;4960543;28;20434;-85
2023/01/22 04:01:24;;;;;;;23.65;14.43;;;;;;;;;;4956458;28;20065;-84
2023/01/22 04:03:52;;;;;;;20.52;13.80;;;;;;;;;;4957043;28;20066;-84
2023/01/22 04:06:20;;;;;;;22.63;14.05;;;;;;;;;;4955634;28;20304;-84
2023/01/22 04:08:50;;;;;;;23.00;14.30;;;;;;;;;;4954187;28;20058;-83
2023/01/22 04:11:17;;;;;;;20.50;13.77;;;;;;;;;;4949389;28;20053;-83
2023/01/22 04:13:44;;;;;;;20.92;13.20;;;;;;;;;;4950432;28;20050;-83
2023/01/22 04:16:11;;;;;;;19.25;13.13;;;;;;;;;;4950347;28;20060;-85
2023/01/22 04:18:40;;;;;;;21.23;13.38;;;;;;;;;;4951956;28;20062;-82
2023/01/22 04:21:07;;;;;;;19.17;13.23;;;;;;;;;;4958030;28;20050;-81
2023/01/22 04:23:33;;;;;;;18.73;12.70;;;;;;;;;;4955748;28;20050;-80
2023/01/22 04:26:00;;;;;;;20.65;13.77;;;;;;;;;;4953924;28;20050;-82
2023/01/22 04:28:27;;;;;;;22.27;14.27;;;;;;;;;;4954066;28;20054;-82
2023/01/22 04:30:54;;;;;;;20.63;13.88;;;;;;;;;;4950052;28;20742;-81
2023/01/22 04:33:21;;;;;;;21.15;13.73;;;;;;;;;;4949365;28;20090;-82
2023/01/22 04:35:50;;;;;;;21.58;13.80;;;;;;;;;;4947732;28;20088;-81
2023/01/22 04:38:16;;;;;;;21.23;13.63;;;;;;;;;;4947110;28;20065;-82
2023/01/22 04:40:43;;;;;;;24.45;14.77;;;;;;;;;;4948003;28;20061;-82
2023/01/22 04:43:10;;;;;;;19.85;13.85;;;;;;;;;;4947323;28;20051;-82
2023/01/22 04:45:37;;;;;;;20.60;13.77;;;;;;;;;;4947008;28;20058;-82
2023/01/22 04:48:04;;;;;;;22.02;13.73;;;;;;;;;;4975633;28;20365;-81
2023/01/22 04:50:32;;;;;;;21.38;13.30;;;;;;;;;;4978038;28;20037;-83
2023/01/22 04:52:59;;;;;;;19.42;13.52;;;;;;;;;;4954132;28;20057;-83
2023/01/22 04:55:26;;;;;;;20.67;13.82;;;;;;;;;;4937718;28;20523;-83
2023/01/22 04:57:55;;;;;;;20.63;13.80;;;;;;;;;;4951596;28;20576;-84
2023/01/22 05:00:22;;;;;;;21.33;13.25;;;;;;;;;;4953910;28;20418;-83
2023/01/22 05:02:49;;;;;;;19.67;13.75;;;;;;;;;;4952275;28;20288;-84
2023/01/22 05:05:16;;;;;;;17.20;12.38;;;;;;;;;;4952927;28;20054;-83
2023/01/22 05:07:42;;;;;;;24.40;14.27;;;;;;;;;;4951619;28;20073;-83
2023/01/22 05:10:09;;;;;;;22.30;13.60;;;;;;;;;;4952856;28;20058;-82
2023/01/22 05:12:36;;;;;;;20.63;14.05;;;;;;;;;;4951902;28;20058;-84
2023/01/22 05:15:03;;;;;;;22.40;13.95;;;;;;;;;;4964845;28;20054;-83
2023/01/22 05:17:48;;;;;;;23.17;13.88;;;;;;;;;;4952325;28;20046;-83
2023/01/22 05:20:15;;;;;;;19.17;13.70;;;;;;;;;;4944584;28;20057;-82
2023/01/22 05:22:42;;;;;;;21.20;14.15;;;;;;;;;;4945269;28;20108;-81
2023/01/22 05:25:09;;;;;;;25.98;15.25;;;;;;;;;;4946339;28;20061;-81
2023/01/22 05:27:35;;;;;;;21.30;13.48;;;;;;;;;;4946139;28;20058;-80
2023/01/22 05:30:04;;;;;;;20.90;13.73;;;;;;;;;;4946150;28;20487;-81
2023/01/22 05:32:31;;;;;;;21.58;14.07;;;;;;;;;;4945819;28;20054;-82
2023/01/22 05:34:57;;;;;;;21.05;14.40;;;;;;;;;;4944976;28;20050;-81
2023/01/22 05:37:24;;;;;;;21.50;13.82;;;;;;;;;;4961108;28;20060;-81
2023/01/22 05:39:51;;;;;;;21.75;13.95;;;;;;;;;;4944877;28;20050;-83
2023/01/22 05:42:18;;;;;;;21.83;14.27;;;;;;;;;;4944560;28;20050;-82
2023/01/22 05:44:44;;;;;;;20.05;13.52;;;;;;;;;;4941053;28;20057;-79
2023/01/22 05:47:12;;;;;;;20.27;14.25;;;;;;;;;;4946487;28;20650;-79
2023/01/22 05:49:39;;;;;;;23.02;14.18;;;;;;;;;;4962071;28;20054;-79
2023/01/22 05:52:09;;;;;;;22.40;13.23;;;;;;;;;;4950569;28;20073;-83
2023/01/22 05:54:38;;;;;;;20.45;13.45;;;;;;;;;;4952517;28;20058;-82
2023/01/22 05:57:05;;;;;;;21.23;13.40;;;;;;;;;;4948749;28;20057;-82
2023/01/22 05:59:32;;;;;;;24.75;15.48;;;;;;;;;;5011300;28;20050;-81
2023/01/22 06:01:59;;;;;;;26.90;17.30;;;;;;;;;;4969104;28;20525;-80
2023/01/22 06:04:27;;;;;;;28.42;17.45;;;;;;;;;;4962537;28;20158;-81
2023/01/22 06:06:53;;;;;;;24.05;16.83;;;;;;;;;;5010255;28;20116;-80
2023/01/22 06:09:20;;;;;;;24.45;16.67;;;;;;;;;;4960732;28;20053;-80
2023/01/22 06:11:47;;;;;;;22.08;15.15;;;;;;;;;;4954031;28;20114;-80
2023/01/22 06:14:14;;;;;;;24.70;16.25;;;;;;;;;;4950402;28;20050;-80
2023/01/22 06:16:41;;;;;;;23.70;16.00;;;;;;;;;;4950719;28;20054;-80
2023/01/22 06:19:08;;;;;;;27.95;17.00;;;;;;;;;;4944956;28;20483;-82
2023/01/22 06:21:35;;;;;;;26.33;17.98;;;;;;;;;;4942373;28;20056;-82
2023/01/22 06:24:02;;;;;;;25.27;17.40;;;;;;;;;;4943045;28;20058;-82
2023/01/22 06:26:29;;;;;;;27.40;16.33;;;;;;;;;;4959170;28;20062;-82
2023/01/22 06:28:55;;;;;;;23.98;15.63;;;;;;;;;;4944785;28;20283;-83
2023/01/22 06:31:22;;;;;;;25.33;16.58;;;;;;;;;;4968788;28;20050;-81
2023/01/22 06:33:49;;;;;;;23.40;15.82;;;;;;;;;;4969355;28;20073;-80
2023/01/22 06:36:16;;;;;;;25.20;14.65;;;;;;;;;;4953495;28;20186;-81
2023/01/22 06:38:42;;;;;;;26.65;16.95;;;;;;;;;;4952158;28;20054;-81
2023/01/22 06:41:09;;;;;;;25.38;16.80;;;;;;;;;;4950237;28;20073;-81
2023/01/22 06:43:36;;;;;;;27.83;16.98;;;;;;;;;;4948575;28;20050;-81
2023/01/22 06:46:03;;;;;;;26.25;17.08;;;;;;;;;;4952601;28;20062;-81
2023/01/22 06:48:30;;;;;;;24.45;15.93;;;;;;;;;;4963521;28;20054;-80
2023/01/22 06:50:58;;;;;;;25.10;16.63;;;;;;;;;;4963989;28;20054;-81
2023/01/22 06:53:25;;;;;;;29.85;18.08;;;;;;;;;;4964372;28;20065;-82
2023/01/22 06:55:52;;;;;;;29.50;17.08;;;;;;;;;;4963434;28;20434;-82
2023/01/22 06:58:19;;;;;;;27.35;16.83;;;;;;;;;;4958730;28;20052;-82
2023/01/22 07:00:46;;;;;;;22.52;15.23;;;;;;;;;;4946122;28;20108;-82
2023/01/22 07:03:12;;;;;;;26.23;17.63;;;;;;;;;;4946199;28;20053;-82
2023/01/22 07:05:39;;;;;;;28.02;18.80;;;;;;;;;;4947720;28;20061;-80
2023/01/22 07:08:06;;;;;;;28.90;17.90;;;;;;;;;;4964225;28;20058;-81
2023/01/22 07:10:33;;;;;;;27.95;17.85;;;;;;;;;;4947103;28;20055;-82
2023/01/22 07:13:01;;;;;;;24.42;16.40;;;;;;;;;;4957014;28;20062;-82
2023/01/22 07:15:28;;;;;;;32.08;19.05;;;;;;;;;;4964429;28;20061;-81
2023/01/22 07:17:54;;;;;;;29.88;19.63;;;;;;;;;;4966258;28;20054;-80
2023/01/22 07:20:22;;;;;;;27.33;16.92;;;;;;;;;;4972554;28;20046;-80
2023/01/22 07:22:50;;;;;;;25.90;17.55;;;;;;;;;;4974072;28;20057;-80
2023/01/22 07:25:18;;;;;;;32.35;20.13;;;;;;;;;;4974123;28;20046;-81
2023/01/22 07:27:44;;;;;;;32.50;19.35;;;;;;;;;;4957962;28;20511;-81
2023/01/22 07:30:12;;;;;;;27.92;18.42;;;;;;;;;;4976361;28;20058;-81
2023/01/22 07:32:39;;;;;;;28.40;18.98;;;;;;;;;;4976368;28;20058;-81
2023/01/22 07:35:06;;;;;;;30.15;17.63;;;;;;;;;;4975794;28;20543;-81
2023/01/22 07:37:32;;;;;;;29.98;18.92;;;;;;;;;;4976584;28;20046;-80
2023/01/22 07:39:59;;;;;;;27.80;18.52;;;;;;;;;;4977654;28;20052;-81
2023/01/22 07:42:26;;;;;;;29.58;17.85;;;;;;;;;;4974620;28;20057;-81
2023/01/22 07:44:52;;;;;;;28.55;17.45;;;;;;;;;;4970546;28;20561;-81
2023/01/22 07:47:19;;;;;;;30.67;19.50;;;;;;;;;;4985939;28;20069;-83
2023/01/22 07:49:46;;;;;;;30.35;18.83;;;;;;;;;;4967968;28;20072;-82
2023/01/22 07:52:12;;;;;;;34.47;19.95;;;;;;;;;;4967430;28;20116;-82
2023/01/22 07:54:39;;;;;;;29.60;18.60;;;;;;;;;;4956487;28;20069;-82
2023/01/22 07:57:06;;;;;;;31.48;19.60;;;;;;;;;;4951189;28;20061;-81
2023/01/22 07:59:33;;;;;;;32.63;19.40;;;;;;;;;;4966646;28;20054;-82
2023/01/22 08:02:00;;;;;;;36.50;22.67;;;;;;;;;;4952019;28;20060;-81
2023/01/22 08:04:29;;;;;;;38.05;24.35;;;;;;;;;;4951991;28;20047;-81
2023/01/22 08:06:56;;;;;;;36.72;22.23;;;;;;;;;;4950737;28;20046;-81
2023/01/22 08:09:24;;;;;;;30.15;21.05;;;;;;;;;;4961537;28;20077;-82
2023/01/22 08:11:51;;;;;;;30.83;19.75;;;;;;;;;;4966406;28;20060;-81
2023/01/22 08:14:19;;;;;;;29.20;17.85;;;;;;;;;;4966059;28;20090;-81
2023/01/22 08:16:45;;;;;;;31.63;19.15;;;;;;;;;;4981138;28;20061;-82
2023/01/22 08:19:14;;;;;;;32.47;19.45;;;;;;;;;;4964695;28;20050;-82
2023/01/22 08:21:40;;;;;;;32.03;18.98;;;;;;;;;;4956509;28;20058;-81
2023/01/22 08:24:09;;;;;;;32.28;19.73;;;;;;;;;;4949456;28;20046;-82
2023/01/22 08:26:36;;;;;;;31.77;17.85;;;;;;;;;;4949356;28;20047;-82
2023/01/22 08:29:02;;;;;;;29.02;18.48;;;;;;;;;;4949396;28;20050;-82
2023/01/22 08:31:34;;;;;;;28.60;18.17;;;;;;;;;;4949944;28;20058;-82
2023/01/22 08:34:01;;;;;;;30.05;18.95;;;;;;;;;;4949422;28;20141;-82
2023/01/22 08:36:27;;;;;;;26.98;17.77;;;;;;;;;;4995198;28;20503;-82
2023/01/22 08:38:54;;;;;;;30.63;19.05;;;;;;;;;;4964395;28;20054;-81
2023/01/22 08:41:21;;;;;;;37.75;20.10;;;;;;;;;;4980091;28;20066;-82
2023/01/22 08:43:48;;;;;;;30.40;19.02;;;;;;;;;;4964680;28;20084;-82
2023/01/22 08:46:15;;;;;;;33.67;19.70;;;;;;;;;;4963896;28;20066;-83
2023/01/22 08:48:42;;;;;;;28.55;18.05;;;;;;;;;;4961698;28;20513;-80
2023/01/22 08:51:10;;;;;;;30.27;18.75;;;;;;;;;;4948184;28;20061;-78
2023/01/22 08:53:37;;;;;;;29.13;17.60;;;;;;;;;;4948629;28;20046;-80
2023/01/22 08:56:04;;;;;;;27.05;16.73;;;;;;;;;;4964354;28;20054;-82
2023/01/22 08:58:31;;;;;;;29.85;17.73;;;;;;;;;;4948514;28;20137;-82
2023/01/22 09:00:58;;;;;;;29.00;17.60;;;;;;;;;;4950638;28;20046;-81
2023/01/22 09:03:25;;;;;;;30.40;18.35;;;;;;;;;;4956375;28;20054;-82
2023/01/22 09:05:51;;;;;;;28.10;17.33;;;;;;;;;;4957670;28;20070;-83
2023/01/22 09:08:19;;;;;;;30.85;18.25;;;;;;;;;;4955958;28;20392;-82
2023/01/22 09:10:45;;;;;;;28.25;16.75;;;;;;;;;;4954635;28;20256;-80
2023/01/22 09:13:12;;;;;;;30.83;18.45;;;;;;;;;;4952465;28;20057;-84
2023/01/22 09:15:39;;;;;;;30.52;17.40;;;;;;;;;;4953149;28;20066;-82
2023/01/22 09:18:06;;;;;;;28.67;17.75;;;;;;;;;;4950551;28;20081;-82
2023/01/22 09:20:33;;;;;;;29.92;17.40;;;;;;;;;;4950589;28;20514;-84
2023/01/22 09:23:00;;;;;;;28.63;17.73;;;;;;;;;;4950708;28;20066;-84
2023/01/22 09:25:28;;;;;;;31.48;18.75;;;;;;;;;;4949521;28;20491;-83
2023/01/22 09:27:58;;;;;;;28.38;18.63;;;;;;;;;;4949519;28;20562;-82
2023/01/22 09:30:28;;;;;;;31.75;19.40;;;;;;;;;;4952832;28;20390;-81
2023/01/22 09:32:56;;;;;;;31.52;20.00;;;;;;;;;;4938693;28;20057;-84
2023/01/22 09:35:23;;;;;;;34.50;20.10;;;;;;;;;;4935298;28;20122;-84
2023/01/22 09:37:49;;;;;;;28.27;17.70;;;;;;;;;;4933370;28;20058;-83
2023/01/22 09:40:26;;;;;;;32.25;19.77;;;;;;;;;;4931771;28;20054;-85
2023/01/22 09:43:05;;;;;;;29.23;17.05;;;;;;;;;;4959641;28;20055;-85
2023/01/22 09:45:35;;;;;;;27.13;16.83;;;;;;;;;;4961510;28;20131;-84
2023/01/22 09:48:06;;;;;;;26.70;16.77;;;;;;;;;;4963772;28;20054;-84
2023/01/22 09:50:33;;;;;;;24.35;16.20;;;;;;;;;;4962491;28;20065;-83
2023/01/22 09:53:05;;;;;;;27.25;17.25;;;;;;;;;;4961332;28;20054;-83
2023/01/22 09:55:39;;;;;;;28.77;17.48;;;;;;;;;;4961999;28;20085;-83
2023/01/22 09:58:11;;;;;;;28.08;17.10;;;;;;;;;;4960933;28;20407;-83
2023/01/22 10:00:41;;;;;;;28.17;18.80;;;;;;;;;;4960519;28;20454;-84
2023/01/22 10:03:29;;;;;;;26.77;16.45;;;;;;;;;;4960089;28;20475;-84
2023/01/22 10:06:19;;;;;;;23.83;15.40;;;;;;;;;;4960840;28;20056;-84
2023/01/22 10:08:57;;;;;;;26.90;16.83;;;;;;;;;;4959544;28;20074;-84
2023/01/22 10:11:24;;;;;;;22.55;14.65;;;;;;;;;;4972574;28;20062;-83
2023/01/22 10:13:55;;;;;;;21.65;14.50;;;;;;;;;;4944114;28;20537;-84
2023/01/22 10:16:21;;;;;;;24.30;15.10;;;;;;;;;;4969164;28;20050;-85
2023/01/22 10:19:10;;;;;;;23.63;15.73;;;;;;;;;;4943319;28;20081;-86
2023/01/22 10:21:46;;;;;;;22.67;14.43;;;;;;;;;;4967160;28;20050;-83
2023/01/22 10:24:12;;;;;;;23.00;14.45;;;;;;;;;;4947427;28;20495;-84
2023/01/22 10:26:40;;;;;;;22.30;15.52;;;;;;;;;;4947992;28;20085;-84
2023/01/22 10:29:09;;;;;;;23.95;15.75;;;;;;;;;;4963023;28;20050;-85
2023/01/22 10:31:39;;;;;;;23.45;14.65;;;;;;;;;;4962682;28;20046;-85
2023/01/22 10:34:13;;;;;;;24.85;15.88;;;;;;;;;;4946776;28;20058;-86
2023/01/22 10:36:46;;;;;;;22.65;15.45;;;;;;;;;;4945690;28;20058;-87
2023/01/22 10:39:14;;;;;;;21.65;15.02;;;;;;;;;;4974667;28;20073;-87
2023/01/22 10:41:43;;;;;;;24.40;15.23;;;;;;;;;;4960389;28;20058;-86
2023/01/22 10:44:22;;;;;;;25.00;14.85;;;;;;;;;;4953012;28;20082;-87
2023/01/22 10:46:49;;;;;;;25.52;16.08;;;;;;;;;;4988551;28;20053;-86
2023/01/22 10:49:20;;;;;;;23.85;15.48;;;;;;;;;;4973643;28;20051;-85
2023/01/22 10:51:55;;;;;;;27.17;15.48;;;;;;;;;;4955357;28;20054;-86
2023/01/22 10:54:27;;;;;;;23.63;16.02;;;;;;;;;;4956035;28;20049;-83
2023/01/22 10:57:20;;;;;;;23.58;15.02;;;;;;;;;;4961311;28;20054;-87
2023/01/22 11:00:08;;;;;;;24.10;15.13;;;;;;;;;;4959733;28;20081;-84
2023/01/22 11:02:35;;;;;;;23.70;16.25;;;;;;;;;;4976920;28;20058;-84
2023/01/22 11:05:32;;;;;;;27.77;17.30;;;;;;;;;;4946524;28;20404;-83
2023/01/22 11:08:02;;;;;;;26.95;17.58;;;;;;;;;;4960488;28;20497;-84
2023/01/22 11:10:49;;;;;;;29.65;17.25;;;;;;;;;;4945372;28;20064;-83
2023/01/22 11:13:40;;;;;;;28.70;16.45;;;;;;;;;;4946910;28;20475;-82
2023/01/22 11:16:19;;;;;;;31.83;16.45;;;;;;;;;;4980930;28;20042;-80
2023/01/22 11:19:12;;;;;;;23.05;15.00;;;;;;;;;;4951811;28;20046;-82
2023/01/22 11:21:41;;;;;;;23.55;16.45;;;;;;;;;;4964866;28;20062;-83
2023/01/22 11:24:22;;;;;;;28.00;16.65;;;;;;;;;;4984024;28;20050;-83
2023/01/22 11:27:15;;;;;;;24.13;15.70;;;;;;;;;;4949768;28;20050;-83
2023/01/22 11:30:23;;;;;;;23.35;15.48;;;;;;;;;;4979703;28;20053;-83
2023/01/22 11:33:03;;;;;;;24.73;15.85;;;;;;;;;;4966949;28;20071;-85
2023/01/22 11:35:48;;;;;;;23.10;14.45;;;;;;;;;;4958519;28;20085;-84
2023/01/22 11:38:16;;;;;;;23.40;15.07;;;;;;;;;;4985642;28;20058;-85
2023/01/22 11:41:05;;;;;;;24.40;15.50;;;;;;;;;;4971439;28;20054;-82
2023/01/22 11:44:07;;;;;;;26.27;16.58;;;;;;;;;;4951182;28;20058;-84
2023/01/22 11:46:58;;;;;;;25.95;16.15;;;;;;;;;;4983465;28;20053;-83
2023/01/22 11:49:59;;;;;;;26.80;15.23;;;;;;;;;;4966282;28;20400;-84
2023/01/22 11:52:45;;;;;;;22.60;14.88;;;;;;;;;;4983893;28;20069;-84
2023/01/22 11:55:21;;;;;;;23.40;14.90;;;;;;;;;;4997522;28;20525;-84
2023/01/22 11:57:51;;;;;;;23.50;15.57;;;;;;;;;;4995884;28;20102;-84
2023/01/22 12:00:32;;;;;;;21.50;15.02;;;;;;;;;;4998815;28;20678;-84
2023/01/22 12:03:37;;;;;;;23.25;15.95;;;;;;;;;;4982355;28;20133;-84
2023/01/22 12:06:19;;;;;;;24.20;14.85;;;;;;;;;;5005751;28;20129;-85
2023/01/22 12:08:55;;;;;;;22.13;14.35;;;;;;;;;;5001242;28;20073;-83
2023/01/22 12:11:25;;;;;;;23.77;15.25;;;;;;;;;;4970279;28;20621;-85
2023/01/22 12:14:11;;;;;;;20.65;13.57;;;;;;;;;;5000732;28;20434;-85
2023/01/22 12:17:07;;;;;;;21.85;15.02;;;;;;;;;;4981118;28;20058;-84
2023/01/22 12:19:40;;;;;;;21.23;13.77;;;;;;;;;;4953293;28;20062;-83
2023/01/22 12:22:13;;;;;;;19.45;12.88;;;;;;;;;;4980799;28;20058;-83
2023/01/22 12:25:12;;;;;;;18.75;13.02;;;;;;;;;;4982624;28;20054;-78
2023/01/22 12:28:08;;;;;;;19.90;13.45;;;;;;;;;;4957127;28;20062;-83
2023/01/22 12:30:46;;;;;;;20.58;13.68;;;;;;;;;;4982346;28;20090;-83
2023/01/22 12:33:15;;;;;;;20.35;13.32;;;;;;;;;;4968558;28;20499;-82
2023/01/22 12:35:42;;;;;;;19.33;12.48;;;;;;;;;;4953172;28;20054;-82
2023/01/22 12:38:35;;;;;;;17.38;13.27;;;;;;;;;;4968800;28;20066;-82
2023/01/22 12:41:10;;;;;;;17.40;12.07;;;;;;;;;;4980156;28;20132;-82
2023/01/22 12:43:43;;;;;;;20.35;12.40;;;;;;;;;;4972882;28;20498;-82
2023/01/22 12:46:11;;;;;;;18.20;12.70;;;;;;;;;;5005120;28;20058;-82
2023/01/22 12:49:01;;;;;;;17.40;11.63;;;;;;;;;;4989391;28;20454;-83
2023/01/22 12:51:35;;;;;;;17.10;12.27;;;;;;;;;;4986044;28;20050;-83
2023/01/22 12:54:31;;;;;;;15.35;11.45;;;;;;;;;;4985467;28;20050;-84
2023/01/22 12:57:21;;;;;;;14.55;10.48;;;;;;;;;;4971044;28;20081;-85
2023/01/22 12:59:53;;;;;;;14.75;10.63;;;;;;;;;;4987983;28;20057;-83
2023/01/22 13:02:27;;;;;;;17.08;11.38;;;;;;;;;;4972166;28;20061;-83
2023/01/22 13:04:54;;;;;;;14.32;10.75;;;;;;;;;;5005031;28;20057;-83
2023/01/22 13:07:24;;;;;;;17.77;11.95;;;;;;;;;;4971998;28;20462;-83
2023/01/22 13:10:03;;;;;;;18.13;11.88;;;;;;;;;;5003081;28;20046;-83
2023/01/22 13:13:11;;;;;;;15.27;11.00;;;;;;;;;;4953953;28;20152;-83
2023/01/22 13:15:38;;;;;;;16.20;11.02;;;;;;;;;;4985080;28;20042;-83
2023/01/22 13:18:16;;;;;;;13.80;9.88;;;;;;;;;;4952359;28;20065;-83
2023/01/22 13:21:08;;;;;;;13.55;10.07;;;;;;;;;;4956118;28;20078;-84
2023/01/22 13:23:39;;;;;;;13.90;9.70;;;;;;;;;;4976018;28;20055;-85
2023/01/22 13:26:06;;;;;;;14.85;10.07;;;;;;;;;;4959167;28;20043;-85
2023/01/22 13:28:40;;;;;;;17.27;10.15;;;;;;;;;;4954547;28;20062;-84
2023/01/22 13:31:14;;;;;;;13.35;9.60;;;;;;;;;;4974046;28;20081;-84
2023/01/22 13:33:59;;;;;;;15.73;10.57;;;;;;;;;;4988794;28;20096;-83
2023/01/22 13:36:27;;;;;;;13.45;9.52;;;;;;;;;;4972812;28;20054;-83
2023/01/22 13:39:23;;;;;;;12.32;9.23;;;;;;;;;;4972588;28;20061;-84
2023/01/22 13:41:52;;;;;;;14.45;10.07;;;;;;;;;;4970488;28;20050;-83
2023/01/22 13:44:21;;;;;;;15.98;11.13;;;;;;;;;;4969818;28;20550;-84
2023/01/22 13:46:48;;;;;;;17.27;10.90;;;;;;;;;;4969782;28;20046;-84
2023/01/22 13:49:25;;;;;;;15.13;10.98;;;;;;;;;;4968096;28;20046;-84
2023/01/22 13:51:54;;;;;;;13.80;9.60;;;;;;;;;;4985023;28;20058;-83
2023/01/22 13:54:35;;;;;;;15.15;10.18;;;;;;;;;;4953236;28;20082;-83
2023/01/22 13:57:01;;;;;;;14.93;10.63;;;;;;;;;;4952279;28;20057;-83
2023/01/22 13:59:35;;;;;;;13.82;10.18;;;;;;;;;;4952189;28;20088;-83
2023/01/22 14:02:18;;;;;;;13.98;9.85;;;;;;;;;;4974626;28;20054;-84
2023/01/22 14:04:45;;;;;;;14.98;11.20;;;;;;;;;;4976967;28;20141;-83
2023/01/22 14:07:29;;;;;;;13.13;10.18;;;;;;;;;;4959876;28;20060;-83
2023/01/22 14:09:57;;;;;;;14.35;10.50;;;;;;;;;;4958832;28;20050;-83
2023/01/22 14:12:26;;;;;;;13.75;10.48;;;;;;;;;;4958561;28;20128;-83
2023/01/22 14:14:53;;;;;;;12.73;10.25;;;;;;;;;;4958335;28;20129;-83
2023/01/22 14:17:22;;;;;;;13.60;10.05;;;;;;;;;;4957010;28;20057;-82
2023/01/22 14:19:49;;;;;;;15.77;10.38;;;;;;;;;;4957689;28;20073;-85
2023/01/22 14:22:16;;;;;;;12.93;10.07;;;;;;;;;;4955290;28;20057;-83
2023/01/22 14:24:42;;;;;;;11.40;9.80;;;;;;;;;;4954436;28;20054;-82
2023/01/22 14:27:09;;;;;;;14.27;10.40;;;;;;;;;;4953746;28;20576;-82
2023/01/22 14:29:36;;;;;;;12.77;10.10;;;;;;;;;;4967770;28;20054;-85
2023/01/22 14:32:03;;;;;;;12.30;9.70;;;;;;;;;;4950656;28;20156;-84
2023/01/22 14:34:30;;;;;;;12.90;9.50;;;;;;;;;;4966924;28;20430;-86
2023/01/22 14:36:56;;;;;;;11.88;9.43;;;;;;;;;;4966683;28;20050;-84
2023/01/22 14:39:23;;;;;;;12.60;8.85;;;;;;;;;;4952343;28;20046;-85
2023/01/22 14:41:50;;;;;;;10.82;8.75;;;;;;;;;;4950784;28;20061;-83
2023/01/22 14:44:17;;;;;;;10.57;8.63;;;;;;;;;;4950088;28;20495;-84
2023/01/22 14:46:44;;;;;;;10.05;8.63;;;;;;;;;;4951571;28;20050;-83